createdAt,value
2022-09-30T00:00:00.297Z,0.0
2022-09-30T00:05:00.265Z,0.0
2022-09-30T00:10:00.297Z,0.0
2022-09-30T00:15:00.267Z,0.0
2022-09-30T00:20:00.311Z,0.0
2022-09-30T00:25:00.254Z,0.0
2022-09-30T00:30:00.281Z,0.0
2022-09-30T00:35:00.259Z,0.0
2022-09-30T00:40:00.318Z,0.0
2022-09-30T00:45:00.261Z,0.0
2022-09-30T00:50:00.247Z,0.0
2022-09-30T00:55:00.282Z,0.0
2022-09-30T01:00:01.098Z,0.0
2022-09-30T01:05:00.270Z,0.0
2022-09-30T01:10:00.280Z,0.0
2022-09-30T01:15:00.402Z,0.0
2022-09-30T01:20:00.325Z,0.0
2022-09-30T01:25:00.274Z,0.0
2022-09-30T01:30:00.311Z,0.0
2022-09-30T01:35:00.285Z,0.0
2022-09-30T01:40:00.279Z,0.0
2022-09-30T01:45:00.268Z,0.0
2022-09-30T01:50:00.282Z,0.0
2022-09-30T01:55:00.303Z,0.0
2022-09-30T02:00:00.315Z,0.0
2022-09-30T02:05:00.265Z,0.0
2022-09-30T02:10:00.294Z,0.0
2022-09-30T02:15:00.269Z,0.0
2022-09-30T02:20:00.267Z,0.0
2022-09-30T02:25:00.260Z,0.0
2022-09-30T02:30:00.298Z,0.0
2022-09-30T02:35:00.258Z,0.0
2022-09-30T02:40:00.308Z,0.0
2022-09-30T02:45:00.266Z,0.0
2022-09-30T02:50:00.282Z,0.0
2022-09-30T02:55:00.278Z,0.0
2022-09-30T03:00:04.155Z,0.0
2022-09-30T03:05:00.249Z,0.0
2022-09-30T03:10:00.297Z,0.0
2022-09-30T03:15:00.241Z,0.0
2022-09-30T03:20:00.283Z,0.0
2022-09-30T03:25:00.277Z,0.0
2022-09-30T03:30:00.279Z,0.0
2022-09-30T03:35:00.245Z,0.0
2022-09-30T03:40:00.307Z,0.0
2022-09-30T03:45:00.346Z,0.0
2022-09-30T03:50:00.291Z,0.0
2022-09-30T03:55:00.274Z,0.0
2022-09-30T04:00:00.292Z,0.0
2022-09-30T04:05:00.244Z,0.0
2022-09-30T04:10:00.297Z,0.0
2022-09-30T04:15:00.285Z,0.0
2022-09-30T04:20:00.265Z,0.0
2022-09-30T04:25:00.268Z,0.0
2022-09-30T04:30:00.298Z,0.0
2022-09-30T04:35:00.274Z,0.0
2022-09-30T04:40:00.278Z,0.0
2022-09-30T04:45:00.309Z,0.0
2022-09-30T04:50:00.310Z,0.0
2022-09-30T04:55:00.345Z,0.0
2022-09-30T05:00:00.373Z,0.0
2022-09-30T05:05:00.303Z,0.0
2022-09-30T05:10:00.324Z,0.0
2022-09-30T05:15:00.367Z,0.0
2022-09-30T05:20:00.307Z,0.0
2022-09-30T05:25:00.292Z,0.0
2022-09-30T05:30:00.629Z,0.0
2022-09-30T05:35:00.288Z,0.0
2022-09-30T05:40:00.556Z,0.0
2022-09-30T05:45:00.370Z,0.0
2022-09-30T05:50:00.373Z,0.0
2022-09-30T05:55:00.301Z,0.0
2022-09-30T06:00:00.411Z,0.0
2022-09-30T06:05:00.299Z,0.0
2022-09-30T06:10:00.467Z,0.0
2022-09-30T06:15:00.364Z,0.0
2022-09-30T06:20:00.437Z,0.0
2022-09-30T06:25:00.314Z,0.0
2022-09-30T06:30:00.447Z,0.0
2022-09-30T06:35:00.302Z,0.0
2022-09-30T06:40:00.387Z,0.0
2022-09-30T06:45:00.296Z,0.0
2022-09-30T06:50:00.543Z,0.4
2022-09-30T06:55:00.315Z,0.0
2022-09-30T07:00:00.449Z,0.0
2022-09-30T07:05:00.312Z,0.5
2022-09-30T07:10:00.580Z,2.7
2022-09-30T07:15:00.348Z,1.0
2022-09-30T07:20:00.477Z,0.7
2022-09-30T07:25:00.306Z,0.1
2022-09-30T07:30:16.222Z,0.0
2022-09-30T07:35:00.298Z,0.1
2022-09-30T07:40:00.447Z,3.5
2022-09-30T07:45:00.303Z,2.3
2022-09-30T07:50:00.423Z,2.2
2022-09-30T07:55:00.289Z,2.8
2022-09-30T08:00:30.117Z,3.8
2022-09-30T08:05:00.318Z,1.9
2022-09-30T08:10:00.762Z,1.5
2022-09-30T08:15:00.299Z,5.0
2022-09-30T08:20:00.463Z,4.8
2022-09-30T08:25:00.324Z,2.1
2022-09-30T08:30:05.026Z,3.1
2022-09-30T08:35:00.292Z,1.8
2022-09-30T08:40:00.350Z,3.0
2022-09-30T08:45:00.282Z,2.6
2022-09-30T08:50:00.298Z,2.1
2022-09-30T08:55:00.342Z,4.1
2022-09-30T09:00:00.314Z,0.4
2022-09-30T09:05:00.303Z,1.8
2022-09-30T09:10:00.389Z,5.4
2022-09-30T09:15:00.309Z,3.4
2022-09-30T09:20:00.353Z,3.1
2022-09-30T09:25:00.290Z,1.2
2022-09-30T09:30:00.327Z,2.2
2022-09-30T09:35:00.310Z,3.1
2022-09-30T09:40:04.588Z,3.4
2022-09-30T09:45:00.282Z,3.4
2022-09-30T09:50:00.285Z,4.5
2022-09-30T09:55:00.251Z,4.3
2022-09-30T10:05:00.391Z,4.7
2022-09-30T10:10:00.273Z,4.8
2022-09-30T10:15:00.280Z,5.6
2022-09-30T10:20:00.284Z,5.5
2022-09-30T10:25:00.249Z,2.5
2022-09-30T10:30:00.333Z,5.8
2022-09-30T10:35:00.272Z,1.9
2022-09-30T10:40:00.258Z,3.5
2022-09-30T10:45:00.245Z,5.8
2022-09-30T10:50:00.266Z,2.5
2022-09-30T10:55:00.269Z,3.5
2022-09-30T11:00:00.260Z,6.0
2022-09-30T11:05:00.263Z,7.4
2022-09-30T11:10:00.294Z,5.0
2022-09-30T11:15:00.294Z,5.6
2022-09-30T11:20:00.286Z,4.2
2022-09-30T11:25:00.257Z,5.5
2022-09-30T11:30:00.289Z,3.7
2022-09-30T11:35:00.271Z,1.8
2022-09-30T11:40:00.275Z,2.5
2022-09-30T11:45:00.301Z,3.0
2022-09-30T11:50:00.279Z,0.6
2022-09-30T11:55:00.254Z,4.7
2022-09-30T12:00:00.313Z,8.2
2022-09-30T12:05:00.255Z,2.5
2022-09-30T12:10:00.294Z,3.1
2022-09-30T12:15:00.268Z,3.7
2022-09-30T12:20:00.257Z,3.0
2022-09-30T12:25:00.247Z,4.2
2022-09-30T12:30:00.300Z,3.9
2022-09-30T12:35:00.234Z,3.2
2022-09-30T12:40:00.275Z,3.8
2022-09-30T12:45:00.299Z,1.5
2022-09-30T12:50:00.256Z,4.7
2022-09-30T12:55:00.331Z,7.8
2022-09-30T13:00:00.290Z,5.5
2022-09-30T13:05:00.270Z,2.2
2022-09-30T13:10:00.342Z,4.5
2022-09-30T13:15:00.281Z,3.7
2022-09-30T13:20:00.320Z,4.2
2022-09-30T13:25:00.266Z,3.7
2022-09-30T13:30:00.318Z,5.1
2022-09-30T13:35:00.274Z,5.2
2022-09-30T13:40:00.305Z,4.5
2022-09-30T13:45:00.321Z,6.6
2022-09-30T13:50:00.332Z,5.3
2022-09-30T13:55:00.282Z,4.8
2022-09-30T14:00:00.339Z,3.2
2022-09-30T14:05:00.257Z,4.5
2022-09-30T14:10:00.296Z,4.6
2022-09-30T14:15:00.294Z,5.7
2022-09-30T14:20:00.297Z,4.7
2022-09-30T14:25:00.273Z,3.8
2022-09-30T14:30:00.290Z,2.5
2022-09-30T14:35:00.275Z,3.6
2022-09-30T14:40:00.295Z,3.0
2022-09-30T14:45:00.285Z,3.5
2022-09-30T14:50:00.306Z,3.5
2022-09-30T14:55:00.264Z,2.3
2022-09-30T15:00:00.336Z,3.3
2022-09-30T15:05:01.766Z,2.1
2022-09-30T15:10:00.295Z,3.6
2022-09-30T15:15:00.279Z,2.0
2022-09-30T15:20:00.388Z,1.7
2022-09-30T15:25:00.241Z,2.6
2022-09-30T15:30:00.314Z,2.7
2022-09-30T15:35:00.289Z,4.3
2022-09-30T15:40:00.282Z,2.7
2022-09-30T15:45:00.261Z,0.7
2022-09-30T15:50:00.302Z,3.2
2022-09-30T15:55:00.240Z,1.2
2022-09-30T16:00:00.346Z,1.0
2022-09-30T16:05:00.259Z,0.8
2022-09-30T16:10:00.295Z,0.2
2022-09-30T16:15:00.469Z,0.0
2022-09-30T16:20:00.306Z,0.0
2022-09-30T16:25:00.274Z,0.0
2022-09-30T16:30:00.338Z,0.0
2022-09-30T16:35:00.276Z,0.0
2022-09-30T16:40:00.316Z,0.0
2022-09-30T16:45:00.270Z,0.0
2022-09-30T16:50:00.297Z,0.0
2022-09-30T16:55:00.253Z,0.3
2022-09-30T17:00:00.498Z,0.1
2022-09-30T17:05:00.260Z,0.0
2022-09-30T17:10:00.503Z,0.0
2022-09-30T17:15:00.279Z,0.0
2022-09-30T17:20:00.404Z,0.0
2022-09-30T17:25:00.266Z,0.0
2022-09-30T17:30:00.316Z,0.0
2022-09-30T17:35:00.259Z,0.0
2022-09-30T17:40:00.275Z,0.0
2022-09-30T17:45:00.264Z,0.0
2022-09-30T17:50:00.300Z,0.0
2022-09-30T17:55:00.270Z,0.0
2022-09-30T18:00:00.385Z,0.0
2022-09-30T18:05:00.259Z,0.0
2022-09-30T18:10:00.291Z,0.0
2022-09-30T18:15:00.293Z,0.0
2022-09-30T18:20:00.280Z,0.0
2022-09-30T18:25:00.260Z,0.0
2022-09-30T18:30:00.289Z,0.0
2022-09-30T18:35:00.259Z,0.0
2022-09-30T18:40:00.296Z,0.0
2022-09-30T18:45:00.259Z,0.0
2022-09-30T18:50:00.282Z,0.0
2022-09-30T18:55:00.272Z,0.0
2022-09-30T19:00:00.304Z,0.0
2022-09-30T19:05:00.423Z,0.0
2022-09-30T19:10:00.299Z,0.0
2022-09-30T19:15:00.271Z,0.0
2022-09-30T19:20:00.291Z,0.0
2022-09-30T19:25:00.264Z,0.0
2022-09-30T19:30:00.304Z,0.0
2022-09-30T19:35:06.941Z,0.0
2022-09-30T19:40:20.293Z,0.0
2022-09-30T19:45:00.246Z,0.0
2022-09-30T19:50:00.342Z,0.0
2022-09-30T19:55:15.042Z,0.0
2022-09-30T20:00:05.473Z,0.0
2022-09-30T20:05:00.239Z,0.0
2022-09-30T20:10:00.279Z,0.0
2022-09-30T20:15:00.280Z,0.0
2022-09-30T20:20:00.277Z,0.0
2022-09-30T20:25:00.252Z,0.0
2022-09-30T20:30:00.292Z,0.0
2022-09-30T20:35:00.253Z,0.0
2022-09-30T20:40:00.286Z,0.0
2022-09-30T20:45:00.259Z,0.0
2022-09-30T20:50:00.319Z,0.0
2022-09-30T20:55:00.743Z,0.0
2022-09-30T21:00:00.482Z,0.0
2022-09-30T21:05:00.242Z,0.0
2022-09-30T21:10:00.275Z,0.0
2022-09-30T21:15:00.234Z,0.0
2022-09-30T21:20:00.270Z,0.0
2022-09-30T21:25:00.235Z,0.0
2022-09-30T21:30:00.322Z,0.0
2022-09-30T21:35:00.241Z,0.0
2022-09-30T21:40:00.276Z,0.0
2022-09-30T21:45:00.246Z,0.0
2022-09-30T21:50:00.264Z,0.0
2022-09-30T21:55:00.268Z,0.0
2022-09-30T22:00:00.362Z,0.0
2022-09-30T22:05:00.230Z,0.0
2022-09-30T22:10:00.264Z,0.0
2022-09-30T22:15:00.240Z,0.7
2022-09-30T22:20:00.265Z,0.3
2022-09-30T22:25:00.257Z,0.0
2022-09-30T22:30:00.290Z,0.0
2022-09-30T22:35:00.257Z,0.0
2022-09-30T22:40:01.408Z,0.2
2022-09-30T22:45:00.247Z,0.0
2022-09-30T22:50:00.257Z,0.0
2022-09-30T22:55:00.266Z,0.0
2022-09-30T23:00:00.271Z,0.0
2022-09-30T23:05:00.243Z,0.0
2022-09-30T23:10:00.258Z,0.0
2022-09-30T23:15:00.272Z,0.0
2022-09-30T23:20:00.249Z,0.0
2022-09-30T23:25:00.306Z,0.0
2022-09-30T23:30:00.262Z,0.0
2022-09-30T23:35:00.253Z,0.0
2022-09-30T23:40:00.303Z,0.0
2022-09-30T23:45:00.269Z,0.0
2022-09-30T23:50:00.290Z,0.0
2022-09-30T23:55:00.251Z,0.0
